createdAt,value
2017-12-05T00:00:04.534Z,957.8
2017-12-05T00:01:12.625Z,957.8
2017-12-05T00:02:20.722Z,957.8
2017-12-05T00:03:28.858Z,957.8
2017-12-05T00:04:36.922Z,957.9
2017-12-05T00:05:45.010Z,957.9
2017-12-05T00:06:53.096Z,957.9
2017-12-05T00:08:01.181Z,957.9
2017-12-05T00:09:09.391Z,957.9
2017-12-05T00:10:17.356Z,957.9
2017-12-05T00:11:25.444Z,957.9
2017-12-05T00:12:33.551Z,957.9
2017-12-05T00:13:41.621Z,957.9
2017-12-05T00:14:49.833Z,957.9
2017-12-05T00:15:58.059Z,957.9
2017-12-05T00:17:05.959Z,957.9
2017-12-05T00:18:14.051Z,957.9
2017-12-05T00:19:22.131Z,957.9
2017-12-05T00:20:30.285Z,957.9
2017-12-05T00:21:38.354Z,957.9
2017-12-05T00:22:46.407Z,957.8
2017-12-05T00:23:54.493Z,957.9
2017-12-05T00:25:02.582Z,957.9
2017-12-05T00:26:10.789Z,957.9
2017-12-05T00:27:18.755Z,957.9
2017-12-05T00:28:26.844Z,957.9
2017-12-05T00:29:34.931Z,957.9
2017-12-05T00:30:43.081Z,957.9
2017-12-05T00:31:51.164Z,957.9
2017-12-05T00:32:59.193Z,957.9
2017-12-05T00:34:07.280Z,957.9
2017-12-05T00:35:15.493Z,958.0
2017-12-05T00:36:23.458Z,957.9
2017-12-05T00:37:31.660Z,957.9
2017-12-05T00:38:39.630Z,957.9
2017-12-05T00:39:47.718Z,957.9
2017-12-05T00:40:55.803Z,957.9
2017-12-05T00:42:03.890Z,957.9
2017-12-05T00:43:12.109Z,957.9
2017-12-05T00:44:20.258Z,957.9
2017-12-05T00:45:28.229Z,957.9
2017-12-05T00:46:36.373Z,957.9
2017-12-05T00:47:44.405Z,958.0
2017-12-05T00:48:52.623Z,958.0
2017-12-05T00:50:02.270Z,958.0
2017-12-05T00:51:08.667Z,958.0
2017-12-05T00:52:16.753Z,958.0
2017-12-05T00:53:24.849Z,958.0
2017-12-05T00:54:32.988Z,958.0
2017-12-05T00:55:41.018Z,958.0
2017-12-05T00:56:49.108Z,958.0
2017-12-05T00:57:57.224Z,958.0
2017-12-05T00:59:05.280Z,958.0
2017-12-05T01:00:13.432Z,958.0
2017-12-05T01:01:21.782Z,958.0
2017-12-05T01:02:29.694Z,958.0
2017-12-05T01:03:37.661Z,958.0
2017-12-05T01:04:45.747Z,958.1
2017-12-05T01:05:53.895Z,958.1
2017-12-05T01:07:01.924Z,958.1
2017-12-05T01:08:10.012Z,958.1
2017-12-05T01:09:18.098Z,958.1
2017-12-05T01:10:26.504Z,958.0
2017-12-05T01:11:34.699Z,958.0
2017-12-05T01:12:42.607Z,958.1
2017-12-05T01:13:50.692Z,958.1
2017-12-05T01:14:58.935Z,958.1
2017-12-05T01:16:06.864Z,958.1
2017-12-05T01:17:15.009Z,958.1
2017-12-05T01:18:23.105Z,958.2
2017-12-05T01:19:31.275Z,958.2
2017-12-05T01:20:39.214Z,958.2
2017-12-05T01:21:47.309Z,958.2
2017-12-05T01:22:55.519Z,958.2
2017-12-05T01:24:03.515Z,958.1
2017-12-05T01:25:11.566Z,958.1
2017-12-05T01:26:19.688Z,958.2
2017-12-05T01:27:27.778Z,958.2
2017-12-05T01:28:35.986Z,958.2
2017-12-05T01:29:43.962Z,958.2
2017-12-05T01:30:52.038Z,958.2
2017-12-05T01:32:00.127Z,958.2
2017-12-05T01:33:08.227Z,958.2
2017-12-05T01:34:16.363Z,958.2
2017-12-05T01:35:24.395Z,958.2
2017-12-05T01:36:32.484Z,958.1
2017-12-05T01:37:40.735Z,958.1
2017-12-05T01:38:48.659Z,958.2
2017-12-05T01:39:56.867Z,958.2
2017-12-05T01:41:04.838Z,958.2
2017-12-05T01:42:12.923Z,958.2
2017-12-05T01:43:21.014Z,958.2
2017-12-05T01:44:29.099Z,958.3
2017-12-05T01:45:37.251Z,958.3
2017-12-05T01:46:45.279Z,958.3
2017-12-05T01:47:53.366Z,958.3
2017-12-05T01:49:01.456Z,958.4
2017-12-05T01:50:09.600Z,958.4
2017-12-05T01:51:17.751Z,958.4
2017-12-05T01:52:25.718Z,958.4
2017-12-05T01:53:33.806Z,958.4
2017-12-05T01:54:41.894Z,958.4
2017-12-05T01:55:49.981Z,958.3
2017-12-05T01:56:58.124Z,958.3
2017-12-05T01:58:06.156Z,958.3
2017-12-05T01:59:14.255Z,958.3
2017-12-05T02:00:22.333Z,958.3
2017-12-05T02:01:30.418Z,958.3
2017-12-05T02:02:38.563Z,958.3
2017-12-05T02:03:46.591Z,958.3
2017-12-05T02:04:54.884Z,958.3
2017-12-05T02:06:02.921Z,958.3
2017-12-05T02:07:10.891Z,958.2
2017-12-05T02:08:19.040Z,958.2
2017-12-05T02:09:27.237Z,958.2
2017-12-05T02:10:35.235Z,958.2
2017-12-05T02:11:43.324Z,958.2
2017-12-05T02:12:51.410Z,958.2
2017-12-05T02:13:59.646Z,958.2
2017-12-05T02:15:07.590Z,958.2
2017-12-05T02:16:15.674Z,958.2
2017-12-05T02:17:23.772Z,958.2
2017-12-05T02:18:31.929Z,958.2
2017-12-05T02:19:40.066Z,958.2
2017-12-05T02:20:48.041Z,958.1
2017-12-05T02:21:56.178Z,958.2
2017-12-05T02:23:04.380Z,958.2
2017-12-05T02:24:12.298Z,958.2
2017-12-05T02:25:20.442Z,958.2
2017-12-05T02:26:28.475Z,958.2
2017-12-05T02:27:36.636Z,958.2
2017-12-05T02:28:44.664Z,958.2
2017-12-05T02:29:52.747Z,958.2
2017-12-05T02:31:00.967Z,958.2
2017-12-05T02:32:08.980Z,958.2
2017-12-05T02:33:17.038Z,958.2
2017-12-05T02:34:25.124Z,958.2
2017-12-05T02:35:33.212Z,958.2
2017-12-05T02:36:41.483Z,958.2
2017-12-05T02:37:49.454Z,958.2
2017-12-05T02:38:57.548Z,958.3
2017-12-05T02:40:05.637Z,958.2
2017-12-05T02:41:13.854Z,958.2
2017-12-05T02:42:22.016Z,958.2
2017-12-05T02:43:29.903Z,958.3
2017-12-05T02:44:38.451Z,958.3
2017-12-05T02:45:46.389Z,958.3
2017-12-05T02:46:54.441Z,958.3
2017-12-05T02:48:02.585Z,958.3
2017-12-05T02:49:10.615Z,958.3
2017-12-05T02:50:18.699Z,958.3
2017-12-05T02:51:26.789Z,958.3
2017-12-05T02:52:34.874Z,958.3
2017-12-05T02:53:43.108Z,958.3
2017-12-05T02:54:51.050Z,958.3
2017-12-05T02:55:59.144Z,958.3
2017-12-05T02:57:07.231Z,958.2
2017-12-05T02:58:15.318Z,958.2
2017-12-05T02:59:23.536Z,958.3
2017-12-05T03:00:31.503Z,958.2
2017-12-05T03:01:39.594Z,958.2
2017-12-05T03:02:47.678Z,958.2
2017-12-05T03:03:55.764Z,958.2
2017-12-05T03:05:03.911Z,958.2
2017-12-05T03:06:11.939Z,958.2
2017-12-05T03:07:20.031Z,958.2
2017-12-05T03:08:28.112Z,958.2
2017-12-05T03:09:36.256Z,958.2
2017-12-05T03:10:44.414Z,958.2
2017-12-05T03:11:52.375Z,958.2
2017-12-05T03:13:00.462Z,958.2
2017-12-05T03:14:08.550Z,958.2
2017-12-05T03:15:16.638Z,958.2
2017-12-05T03:16:24.781Z,958.1
2017-12-05T03:17:32.866Z,958.2
2017-12-05T03:18:40.948Z,958.2
2017-12-05T03:19:49.032Z,958.2
2017-12-05T03:20:57.122Z,958.2
2017-12-05T03:22:05.331Z,958.2
2017-12-05T03:23:13.301Z,958.2
2017-12-05T03:24:21.382Z,958.2
2017-12-05T03:25:29.587Z,958.1
2017-12-05T03:26:37.557Z,958.2
2017-12-05T03:27:45.698Z,958.2
2017-12-05T03:28:53.734Z,958.2
2017-12-05T03:30:02.489Z,958.2
2017-12-05T03:31:09.906Z,958.2
2017-12-05T03:32:17.993Z,958.2
2017-12-05T03:33:26.203Z,958.1
2017-12-05T03:34:34.329Z,958.1
2017-12-05T03:35:42.255Z,958.1
2017-12-05T03:36:50.339Z,958.1
2017-12-05T03:37:58.435Z,958.1
2017-12-05T03:39:06.638Z,958.0
2017-12-05T03:40:14.599Z,958.0
2017-12-05T03:41:22.744Z,958.0
2017-12-05T03:42:30.777Z,958.0
2017-12-05T03:43:39.033Z,958.0
2017-12-05T03:44:47.013Z,958.0
2017-12-05T03:45:55.045Z,958.0
2017-12-05T03:47:03.227Z,958.0
2017-12-05T03:48:11.390Z,958.0
2017-12-05T03:49:19.380Z,958.0
2017-12-05T03:50:27.515Z,957.9
2017-12-05T03:51:35.477Z,957.9
2017-12-05T03:52:43.564Z,957.9
2017-12-05T03:53:51.756Z,958.0
2017-12-05T03:54:59.737Z,958.0
2017-12-05T03:56:07.883Z,958.0
2017-12-05T03:57:15.966Z,958.0
2017-12-05T03:58:24.000Z,958.0
2017-12-05T03:59:32.087Z,958.0
2017-12-05T04:00:40.179Z,958.0
2017-12-05T04:01:48.377Z,957.9
2017-12-05T04:02:56.537Z,957.9
2017-12-05T04:04:04.429Z,957.9
2017-12-05T04:05:12.514Z,957.9
2017-12-05T04:06:20.598Z,958.0
2017-12-05T04:07:28.817Z,957.9
2017-12-05T04:08:36.778Z,957.9
2017-12-05T04:09:44.865Z,957.9
2017-12-05T04:10:52.948Z,957.9
2017-12-05T04:12:01.035Z,957.9
2017-12-05T04:13:09.178Z,957.9
2017-12-05T04:14:17.209Z,957.9
2017-12-05T04:15:25.295Z,958.0
2017-12-05T04:16:33.546Z,958.0
2017-12-05T04:17:41.469Z,958.0
2017-12-05T04:18:49.676Z,958.0
2017-12-05T04:19:57.639Z,958.0
2017-12-05T04:21:05.816Z,957.9
2017-12-05T04:22:13.812Z,958.0
2017-12-05T04:23:21.903Z,958.0
2017-12-05T04:24:30.044Z,958.0
2017-12-05T04:25:38.070Z,958.0
2017-12-05T04:26:46.154Z,958.0
2017-12-05T04:27:54.241Z,958.1
2017-12-05T04:29:02.388Z,958.1
2017-12-05T04:30:10.595Z,958.1
2017-12-05T04:31:18.497Z,958.2
2017-12-05T04:32:26.583Z,958.2
2017-12-05T04:33:34.670Z,958.1
2017-12-05T04:34:42.944Z,958.1
2017-12-05T04:35:50.926Z,958.1
2017-12-05T04:36:58.928Z,958.1
2017-12-05T04:38:07.016Z,958.1
2017-12-05T04:39:15.102Z,958.1
2017-12-05T04:40:23.309Z,958.1
2017-12-05T04:41:31.327Z,958.2
2017-12-05T04:42:39.357Z,958.1
2017-12-05T04:43:47.444Z,958.1
2017-12-05T04:44:55.785Z,958.1
2017-12-05T04:46:03.615Z,958.1
2017-12-05T04:47:11.759Z,958.1
2017-12-05T04:48:19.865Z,958.1
2017-12-05T04:49:27.876Z,958.0
2017-12-05T04:50:35.958Z,958.0
2017-12-05T04:51:44.045Z,958.0
2017-12-05T04:52:52.188Z,958.0
2017-12-05T04:54:00.241Z,958.0
2017-12-05T04:55:08.303Z,958.0
2017-12-05T04:56:16.387Z,958.0
2017-12-05T04:57:24.478Z,958.0
2017-12-05T04:58:32.639Z,958.0
2017-12-05T04:59:40.697Z,958.1
2017-12-05T05:00:48.912Z,958.2
2017-12-05T05:01:56.883Z,958.1
2017-12-05T05:03:05.193Z,958.1
2017-12-05T05:04:13.105Z,958.1
2017-12-05T05:05:21.146Z,958.2
2017-12-05T05:06:29.231Z,958.2
2017-12-05T05:07:37.324Z,958.2
2017-12-05T05:08:45.413Z,958.2
2017-12-05T05:09:53.555Z,958.1
2017-12-05T05:11:01.583Z,958.2
2017-12-05T05:12:09.675Z,958.2
2017-12-05T05:13:17.754Z,958.2
2017-12-05T05:14:25.844Z,958.2
2017-12-05T05:15:34.045Z,958.2
2017-12-05T05:16:42.137Z,958.1
2017-12-05T05:17:50.098Z,958.2
2017-12-05T05:18:58.181Z,958.2
2017-12-05T05:21:26.525Z,958.2
2017-12-05T05:22:34.558Z,958.2
2017-12-05T05:23:42.765Z,958.2
2017-12-05T05:24:50.851Z,958.2
2017-12-05T05:25:58.949Z,958.2
2017-12-05T05:27:07.144Z,958.2
2017-12-05T05:28:15.109Z,958.2
2017-12-05T05:29:23.199Z,958.2
2017-12-05T05:30:31.993Z,958.2
2017-12-05T05:31:40.569Z,958.2
2017-12-05T05:32:48.221Z,958.2
2017-12-05T05:33:56.250Z,958.3
2017-12-05T05:35:04.336Z,958.3
2017-12-05T05:36:12.421Z,958.3
2017-12-05T05:37:20.506Z,958.3
2017-12-05T05:38:28.711Z,958.3
2017-12-05T05:39:36.685Z,958.3
2017-12-05T05:40:44.766Z,958.3
2017-12-05T05:41:52.947Z,958.3
2017-12-05T05:43:00.936Z,958.3
2017-12-05T05:44:09.149Z,958.4
2017-12-05T05:45:17.266Z,958.4
2017-12-05T05:46:25.295Z,958.4
2017-12-05T05:47:33.337Z,958.5
2017-12-05T05:48:41.371Z,958.5
2017-12-05T05:49:49.571Z,958.5
2017-12-05T05:50:57.636Z,958.5
2017-12-05T05:52:05.670Z,958.5
2017-12-05T05:53:13.747Z,958.5
2017-12-05T05:54:21.882Z,958.5
2017-12-05T05:55:30.024Z,958.4
2017-12-05T05:56:38.055Z,958.4
2017-12-05T05:57:46.141Z,958.4
2017-12-05T05:58:54.224Z,958.4
2017-12-05T06:00:02.321Z,958.4
2017-12-05T06:01:10.455Z,958.5
2017-12-05T06:02:18.485Z,958.5
2017-12-05T06:03:26.690Z,958.5
2017-12-05T06:04:34.794Z,958.5
2017-12-05T06:05:42.743Z,958.5
2017-12-05T06:06:50.883Z,958.5
2017-12-05T06:07:58.910Z,958.6
2017-12-05T06:09:06.999Z,958.5
2017-12-05T06:10:15.085Z,958.5
2017-12-05T06:11:23.172Z,958.5
2017-12-05T06:12:31.311Z,958.5
2017-12-05T06:13:39.473Z,958.6
2017-12-05T06:14:47.425Z,958.5
2017-12-05T06:15:55.509Z,958.5
2017-12-05T06:17:03.597Z,958.5
2017-12-05T06:18:11.845Z,958.5
2017-12-05T06:19:19.832Z,958.4
2017-12-05T06:20:27.861Z,958.4
2017-12-05T06:21:35.948Z,958.5
2017-12-05T06:22:44.033Z,958.5
2017-12-05T06:23:52.173Z,958.5
2017-12-05T06:25:00.202Z,958.5
2017-12-05T06:26:08.328Z,958.5
2017-12-05T06:27:16.501Z,958.5
2017-12-05T06:28:24.535Z,958.5
2017-12-05T06:29:32.602Z,958.5
2017-12-05T06:30:40.663Z,958.5
2017-12-05T06:31:48.722Z,958.6
2017-12-05T06:32:56.805Z,958.5
2017-12-05T06:34:04.890Z,958.6
2017-12-05T06:35:13.095Z,958.5
2017-12-05T06:36:21.077Z,958.5
2017-12-05T06:37:29.157Z,958.6
2017-12-05T06:38:37.245Z,958.6
2017-12-05T06:39:45.327Z,958.6
2017-12-05T06:40:53.470Z,958.6
2017-12-05T06:42:01.503Z,958.6
2017-12-05T06:43:09.588Z,958.6
2017-12-05T06:44:17.668Z,958.6
2017-12-05T06:45:25.759Z,958.6
2017-12-05T06:46:33.975Z,958.7
2017-12-05T06:47:41.928Z,958.7
2017-12-05T06:48:50.013Z,958.7
2017-12-05T06:49:58.099Z,958.7
2017-12-05T06:51:06.337Z,958.7
2017-12-05T06:52:14.324Z,958.7
2017-12-05T06:53:22.354Z,958.7
2017-12-05T06:54:30.457Z,958.7
2017-12-05T06:55:38.633Z,958.7
2017-12-05T06:56:46.616Z,958.7
2017-12-05T06:57:54.820Z,958.7
2017-12-05T06:59:02.785Z,958.7
2017-12-05T07:00:10.869Z,958.7
2017-12-05T07:01:18.956Z,958.7
2017-12-05T07:02:27.041Z,958.7
2017-12-05T07:03:35.182Z,958.7
2017-12-05T07:04:43.294Z,958.7
2017-12-05T07:05:51.301Z,958.7
2017-12-05T07:06:59.522Z,958.7
2017-12-05T07:08:07.472Z,958.7
2017-12-05T07:09:16.614Z,958.7
2017-12-05T07:10:23.645Z,958.7
2017-12-05T07:11:31.733Z,958.7
2017-12-05T07:12:39.815Z,958.8
2017-12-05T07:13:47.974Z,958.8
2017-12-05T07:14:56.041Z,958.8
2017-12-05T07:16:04.302Z,958.8
2017-12-05T07:17:12.382Z,958.8
2017-12-05T07:18:20.471Z,958.8
2017-12-05T07:19:28.561Z,958.9
2017-12-05T07:20:36.695Z,958.8
2017-12-05T07:21:44.860Z,958.9
2017-12-05T07:22:53.050Z,958.9
2017-12-05T07:24:00.915Z,958.9
2017-12-05T07:25:09.009Z,958.9
2017-12-05T07:26:17.152Z,958.9
2017-12-05T07:27:25.231Z,959.0
2017-12-05T07:28:33.280Z,959.0
2017-12-05T07:29:41.365Z,959.0
2017-12-05T07:30:49.631Z,959.0
2017-12-05T07:31:57.633Z,959.0
2017-12-05T07:33:05.621Z,959.0
2017-12-05T07:34:13.709Z,959.0
2017-12-05T07:35:21.980Z,959.0
2017-12-05T07:36:30.018Z,959.0
2017-12-05T07:37:38.218Z,959.0
2017-12-05T07:38:46.242Z,959.0
2017-12-05T07:39:54.269Z,959.0
2017-12-05T07:41:02.355Z,959.1
2017-12-05T07:42:10.439Z,959.1
2017-12-05T07:43:18.584Z,959.1
2017-12-05T07:44:26.612Z,959.1
2017-12-05T07:45:34.709Z,959.1
2017-12-05T07:46:42.793Z,959.1
2017-12-05T07:47:50.879Z,959.0
2017-12-05T07:48:59.024Z,959.0
2017-12-05T07:50:07.051Z,959.0
2017-12-05T07:51:15.136Z,959.0
2017-12-05T07:52:23.225Z,959.1
2017-12-05T07:53:31.312Z,959.1
2017-12-05T07:54:39.516Z,959.1
2017-12-05T07:55:47.481Z,959.1
2017-12-05T07:56:55.572Z,959.1
2017-12-05T07:58:03.652Z,959.2
2017-12-05T07:59:11.739Z,959.2
2017-12-05T08:00:19.947Z,959.1
2017-12-05T08:01:27.912Z,959.2
2017-12-05T08:02:35.999Z,959.1
2017-12-05T08:03:44.088Z,959.1
2017-12-05T08:04:52.173Z,959.1
2017-12-05T08:06:00.333Z,959.2
2017-12-05T08:07:08.382Z,959.2
2017-12-05T08:08:16.466Z,959.2
2017-12-05T08:09:24.554Z,959.2
2017-12-05T08:10:32.697Z,959.2
2017-12-05T08:11:40.845Z,959.2
2017-12-05T08:12:48.841Z,959.2
2017-12-05T08:13:56.899Z,959.2
2017-12-05T08:15:04.985Z,959.2
2017-12-05T08:16:13.073Z,959.3
2017-12-05T08:17:21.255Z,959.2
2017-12-05T08:18:29.242Z,959.3
2017-12-05T08:19:37.328Z,959.4
2017-12-05T08:20:45.454Z,959.4
2017-12-05T08:21:53.511Z,959.4
2017-12-05T08:23:01.654Z,959.4
2017-12-05T08:24:09.822Z,959.5
2017-12-05T08:25:17.902Z,959.5
2017-12-05T08:26:26.111Z,959.5
2017-12-05T08:27:34.074Z,959.5
2017-12-05T08:28:42.231Z,959.5
2017-12-05T08:29:50.259Z,959.5
2017-12-05T08:30:58.346Z,959.5
2017-12-05T08:32:06.429Z,959.5
2017-12-05T08:33:14.522Z,959.5
2017-12-05T08:34:22.716Z,959.5
2017-12-05T08:35:30.690Z,959.5
2017-12-05T08:36:38.781Z,959.5
2017-12-05T08:37:46.864Z,959.5
2017-12-05T08:38:54.950Z,959.5
2017-12-05T08:40:03.155Z,959.5
2017-12-05T08:41:11.121Z,959.5
2017-12-05T08:42:19.262Z,959.5
2017-12-05T08:43:27.432Z,959.5
2017-12-05T08:44:35.456Z,959.5
2017-12-05T08:45:43.529Z,959.5
2017-12-05T08:46:51.549Z,959.5
2017-12-05T08:47:59.648Z,959.5
2017-12-05T08:49:07.734Z,959.5
2017-12-05T08:50:15.819Z,959.5
2017-12-05T08:51:24.031Z,959.4
2017-12-05T08:52:32.049Z,959.5
2017-12-05T08:53:40.082Z,959.4
2017-12-05T08:54:48.167Z,959.4
2017-12-05T08:55:56.260Z,959.4
2017-12-05T08:57:04.459Z,959.4
2017-12-05T08:58:12.551Z,959.4
2017-12-05T08:59:20.511Z,959.4
2017-12-05T09:00:28.598Z,959.4
2017-12-05T09:01:36.683Z,959.4
2017-12-05T09:02:44.826Z,959.4
2017-12-05T09:03:52.856Z,959.4
2017-12-05T09:05:00.940Z,959.4
2017-12-05T09:06:09.028Z,959.4
2017-12-05T09:07:17.117Z,959.4
2017-12-05T09:08:25.257Z,959.4
2017-12-05T09:09:33.289Z,959.3
2017-12-05T09:10:41.372Z,959.4
2017-12-05T09:11:49.464Z,959.3
2017-12-05T09:12:57.544Z,959.3
2017-12-05T09:14:05.752Z,959.3
2017-12-05T09:15:13.734Z,959.3
2017-12-05T09:16:21.806Z,959.3
2017-12-05T09:17:29.890Z,959.3
2017-12-05T09:18:37.977Z,959.3
2017-12-05T09:19:46.121Z,959.3
2017-12-05T09:20:54.230Z,959.2
2017-12-05T09:22:02.246Z,959.2
2017-12-05T09:23:10.330Z,959.2
2017-12-05T09:24:19.097Z,959.2
2017-12-05T09:25:27.147Z,959.2
2017-12-05T09:26:35.273Z,959.2
2017-12-05T09:27:43.370Z,959.2
2017-12-05T09:28:51.458Z,959.2
2017-12-05T09:29:59.604Z,959.2
2017-12-05T09:31:07.687Z,959.2
2017-12-05T09:32:15.774Z,959.2
2017-12-05T09:33:23.802Z,959.2
2017-12-05T09:34:31.887Z,959.3
2017-12-05T09:35:39.974Z,959.3
2017-12-05T09:36:48.322Z,959.3
2017-12-05T09:37:56.147Z,959.3
2017-12-05T09:39:04.234Z,959.4
2017-12-05T09:40:12.320Z,959.4
2017-12-05T09:41:20.540Z,959.4
2017-12-05T09:42:28.549Z,959.4
2017-12-05T09:43:36.577Z,959.4
2017-12-05T09:44:44.661Z,959.4
2017-12-05T09:45:52.935Z,959.4
2017-12-05T09:47:00.841Z,959.4
2017-12-05T09:48:09.042Z,959.4
2017-12-05T09:49:17.015Z,959.4
2017-12-05T09:50:25.109Z,959.4
2017-12-05T09:51:33.204Z,959.4
2017-12-05T09:52:41.293Z,959.5
2017-12-05T09:53:49.436Z,959.4
2017-12-05T09:54:57.467Z,959.4
2017-12-05T09:56:05.554Z,959.4
2017-12-05T09:57:13.638Z,959.4
2017-12-05T09:58:21.726Z,959.5
2017-12-05T09:59:29.963Z,959.5
2017-12-05T10:00:37.916Z,959.4
2017-12-05T10:01:46.131Z,959.4
2017-12-05T10:02:54.088Z,959.4
2017-12-05T10:04:02.337Z,959.4
2017-12-05T10:05:10.315Z,959.4
2017-12-05T10:06:18.343Z,959.5
2017-12-05T10:07:26.435Z,959.4
2017-12-05T10:08:34.518Z,959.4
2017-12-05T10:09:42.617Z,959.4
2017-12-05T10:10:50.755Z,959.4
2017-12-05T10:11:58.788Z,959.4
2017-12-05T10:13:07.071Z,959.5
2017-12-05T10:14:14.962Z,959.4
2017-12-05T10:15:23.051Z,959.4
2017-12-05T10:16:31.198Z,959.3
2017-12-05T10:17:39.347Z,959.3
2017-12-05T10:18:47.311Z,959.3
2017-12-05T10:19:55.400Z,959.3
2017-12-05T10:21:03.489Z,959.3
2017-12-05T10:22:11.627Z,959.2
2017-12-05T10:23:19.660Z,959.3
2017-12-05T10:24:27.744Z,959.2
2017-12-05T10:25:35.836Z,959.2
2017-12-05T10:26:43.972Z,959.3
2017-12-05T10:27:52.122Z,959.3
2017-12-05T10:29:00.092Z,959.3
2017-12-05T10:30:08.183Z,959.2
2017-12-05T10:31:16.267Z,959.2
2017-12-05T10:32:24.353Z,959.3
2017-12-05T10:33:32.496Z,959.2
2017-12-05T10:34:40.526Z,959.2
2017-12-05T10:35:48.784Z,959.2
2017-12-05T10:36:56.775Z,959.2
2017-12-05T10:38:04.861Z,959.2
2017-12-05T10:39:13.006Z,959.1
2017-12-05T10:40:21.049Z,959.1
2017-12-05T10:41:29.136Z,959.1
2017-12-05T10:42:37.233Z,959.1
2017-12-05T10:43:45.315Z,959.1
2017-12-05T10:44:53.703Z,959.1
2017-12-05T10:46:01.505Z,959.1
2017-12-05T10:47:09.573Z,959.1
2017-12-05T10:48:17.662Z,959.1
2017-12-05T10:49:25.961Z,959.1
2017-12-05T10:50:33.955Z,959.1
2017-12-05T10:51:41.920Z,959.1
2017-12-05T10:52:50.006Z,959.0
2017-12-05T10:53:58.090Z,959.0
2017-12-05T10:55:06.185Z,959.0
2017-12-05T10:56:14.323Z,959.0
2017-12-05T10:57:22.347Z,959.0
2017-12-05T10:58:30.431Z,959.0
2017-12-05T10:59:38.628Z,959.0
2017-12-05T11:00:46.604Z,959.0
2017-12-05T11:01:54.746Z,959.0
2017-12-05T11:03:02.774Z,959.0
2017-12-05T11:04:10.863Z,959.0
2017-12-05T11:05:19.065Z,959.0
2017-12-05T11:06:27.031Z,959.0
2017-12-05T11:07:35.174Z,959.0
2017-12-05T11:08:43.313Z,959.0
2017-12-05T11:09:51.290Z,959.0
2017-12-05T11:10:59.375Z,959.0
2017-12-05T11:12:07.477Z,959.0
2017-12-05T11:13:15.626Z,959.0
2017-12-05T11:14:23.638Z,959.0
2017-12-05T11:15:31.726Z,959.1
2017-12-05T11:16:39.811Z,959.1
2017-12-05T11:17:47.897Z,959.0
2017-12-05T11:18:56.107Z,959.0
2017-12-05T11:20:04.070Z,959.0
2017-12-05T11:21:12.276Z,959.0
2017-12-05T11:22:20.281Z,959.0
2017-12-05T11:23:28.332Z,958.9
2017-12-05T11:24:36.488Z,958.9
2017-12-05T11:25:44.496Z,958.9
2017-12-05T11:26:52.628Z,958.9
2017-12-05T11:28:00.669Z,958.9
2017-12-05T11:29:08.762Z,958.9
2017-12-05T11:30:16.960Z,958.9
2017-12-05T11:31:24.955Z,958.9
2017-12-05T11:32:33.012Z,958.9
2017-12-05T11:33:41.098Z,958.9
2017-12-05T11:34:49.187Z,958.9
2017-12-05T11:35:57.478Z,959.0
2017-12-05T11:37:05.472Z,958.9
2017-12-05T11:38:13.441Z,958.9
2017-12-05T11:39:21.530Z,958.9
2017-12-05T11:40:29.612Z,958.9
2017-12-05T11:41:37.855Z,958.9
2017-12-05T11:42:45.783Z,958.9
2017-12-05T11:43:53.869Z,958.9
2017-12-05T11:45:02.491Z,958.9
2017-12-05T11:46:10.045Z,958.9
2017-12-05T11:47:18.182Z,958.9
2017-12-05T11:48:26.212Z,958.9
2017-12-05T11:49:34.301Z,958.9
2017-12-05T11:50:42.386Z,958.9
2017-12-05T11:51:50.540Z,958.9
2017-12-05T11:52:58.746Z,958.9
2017-12-05T11:54:06.709Z,958.9
2017-12-05T11:55:14.834Z,958.9
2017-12-05T11:56:22.881Z,959.0
2017-12-05T11:57:30.966Z,958.9
2017-12-05T11:58:39.174Z,959.0
2017-12-05T11:59:47.138Z,958.9
2017-12-05T12:00:55.222Z,958.9
2017-12-05T12:02:03.309Z,959.0
2017-12-05T12:03:11.392Z,958.9
2017-12-05T12:04:19.536Z,958.9
2017-12-05T12:05:27.564Z,958.9
2017-12-05T12:06:35.653Z,958.9
2017-12-05T12:07:43.735Z,958.9
2017-12-05T12:08:51.982Z,958.9
2017-12-05T12:09:59.907Z,958.9
2017-12-05T12:11:07.997Z,958.9
2017-12-05T12:12:16.082Z,958.9
2017-12-05T12:13:24.213Z,958.9
2017-12-05T12:14:32.308Z,958.9
2017-12-05T12:15:40.336Z,958.9
2017-12-05T12:16:48.423Z,958.9
2017-12-05T12:17:56.657Z,958.9
2017-12-05T12:19:04.602Z,958.8
2017-12-05T12:20:12.807Z,958.8
2017-12-05T12:21:20.772Z,958.9
2017-12-05T12:22:29.002Z,958.9
2017-12-05T12:23:36.944Z,958.8
2017-12-05T12:24:45.085Z,958.8
2017-12-05T12:25:53.168Z,958.9
2017-12-05T12:27:01.198Z,958.9
2017-12-05T12:28:09.284Z,958.8
2017-12-05T12:29:17.368Z,958.9
2017-12-05T12:30:25.453Z,958.8
2017-12-05T12:31:33.714Z,958.8
2017-12-05T12:32:41.635Z,958.8
2017-12-05T12:33:49.722Z,958.8
2017-12-05T12:34:57.808Z,958.9
2017-12-05T12:36:05.896Z,958.9
2017-12-05T12:37:14.048Z,958.9
2017-12-05T12:38:22.074Z,958.9
2017-12-05T12:39:30.164Z,958.9
2017-12-05T12:40:38.369Z,958.9
2017-12-05T12:41:46.330Z,958.9
2017-12-05T12:42:54.472Z,958.9
2017-12-05T12:44:02.499Z,958.9
2017-12-05T12:45:10.585Z,958.8
2017-12-05T12:46:18.667Z,958.9
2017-12-05T12:47:26.757Z,958.9
2017-12-05T12:48:34.897Z,958.8
2017-12-05T12:49:42.923Z,958.9
2017-12-05T12:50:51.010Z,958.9
2017-12-05T12:51:59.095Z,958.8
2017-12-05T12:53:07.182Z,958.8
2017-12-05T12:54:15.385Z,958.8
2017-12-05T12:55:23.348Z,958.8
2017-12-05T12:56:31.491Z,958.8
2017-12-05T12:57:39.519Z,958.8
2017-12-05T12:58:47.609Z,958.8
2017-12-05T12:59:55.824Z,958.7
2017-12-05T13:01:03.776Z,958.7
2017-12-05T13:02:11.861Z,958.7
2017-12-05T13:03:19.947Z,958.7
2017-12-05T13:04:28.028Z,958.7
2017-12-05T13:05:36.358Z,958.7
2017-12-05T13:06:44.201Z,958.7
2017-12-05T13:07:52.282Z,958.8
2017-12-05T13:09:00.368Z,958.7
2017-12-05T13:10:08.459Z,958.7
2017-12-05T13:11:16.601Z,958.8
2017-12-05T13:12:24.685Z,958.7
2017-12-05T13:13:32.729Z,958.7
2017-12-05T13:14:40.823Z,958.7
2017-12-05T13:15:48.904Z,958.7
2017-12-05T13:16:57.117Z,958.7
2017-12-05T13:18:05.088Z,958.6
2017-12-05T13:19:13.168Z,958.6
2017-12-05T13:20:21.258Z,958.6
2017-12-05T13:21:29.344Z,958.6
2017-12-05T13:22:37.492Z,958.6
2017-12-05T13:23:45.533Z,958.6
2017-12-05T13:24:53.619Z,958.5
2017-12-05T13:26:01.704Z,958.5
2017-12-05T13:27:09.952Z,958.6
2017-12-05T13:28:18.096Z,958.5
2017-12-05T13:29:25.955Z,958.6
2017-12-05T13:30:34.045Z,958.5
2017-12-05T13:31:42.300Z,958.5
2017-12-05T13:32:50.223Z,958.6
2017-12-05T13:33:58.365Z,958.6
2017-12-05T13:35:06.418Z,958.6
2017-12-05T13:36:14.637Z,958.6
2017-12-05T13:37:22.593Z,958.6
2017-12-05T13:38:30.677Z,958.6
2017-12-05T13:39:38.883Z,958.7
2017-12-05T13:40:46.845Z,958.7
2017-12-05T13:41:54.931Z,958.7
2017-12-05T13:43:03.016Z,958.6
2017-12-05T13:44:11.156Z,958.6
2017-12-05T13:45:19.241Z,958.6
2017-12-05T13:46:27.274Z,958.6
2017-12-05T13:47:35.356Z,958.7
2017-12-05T13:48:43.444Z,958.6
2017-12-05T13:49:51.666Z,958.7
2017-12-05T13:50:59.896Z,958.7
2017-12-05T13:52:07.691Z,958.7
2017-12-05T13:53:15.777Z,958.7
2017-12-05T13:54:24.014Z,958.8
2017-12-05T13:55:31.947Z,958.8
2017-12-05T13:56:40.114Z,958.8
2017-12-05T13:57:48.115Z,958.8
2017-12-05T13:58:56.344Z,958.8
2017-12-05T14:00:04.403Z,958.8
2017-12-05T14:01:12.369Z,958.8
2017-12-05T14:02:20.508Z,958.8
2017-12-05T14:03:28.538Z,958.8
2017-12-05T14:04:36.622Z,958.8
2017-12-05T14:05:44.711Z,958.8
2017-12-05T14:06:52.792Z,958.7
2017-12-05T14:08:00.934Z,958.8
2017-12-05T14:09:08.984Z,958.7
2017-12-05T14:10:17.042Z,958.7
2017-12-05T14:11:25.128Z,958.8
2017-12-05T14:12:33.495Z,958.7
2017-12-05T14:13:41.821Z,958.7
2017-12-05T14:14:49.661Z,958.7
2017-12-05T14:15:57.805Z,958.7
2017-12-05T14:17:05.916Z,958.7
2017-12-05T14:18:13.919Z,958.7
2017-12-05T14:19:22.056Z,958.7
2017-12-05T14:20:30.087Z,958.7
2017-12-05T14:21:38.280Z,958.7
2017-12-05T14:22:46.322Z,958.6
2017-12-05T14:23:54.340Z,958.6
2017-12-05T14:25:02.546Z,958.6
2017-12-05T14:26:10.508Z,958.6
2017-12-05T14:27:18.668Z,958.5
2017-12-05T14:28:26.676Z,958.6
2017-12-05T14:29:34.760Z,958.6
2017-12-05T14:30:42.902Z,958.5
2017-12-05T14:31:50.987Z,958.6
2017-12-05T14:32:59.014Z,958.5
2017-12-05T14:34:07.110Z,958.5
2017-12-05T14:35:15.394Z,958.6
2017-12-05T14:36:23.560Z,958.6
2017-12-05T14:37:31.363Z,958.5